Terminal Aerodrome Forecast
Issued by NWS Des Moines, IA

Home | Current Version | Previous Version | Text Only | Print | Product List | Glossary On
Versions: 1 2 3 4 5 6 7 8 9 10 11 12 13 14 15 16 17 18 19 20 21 22 23 24 25 26 27 28 29 30 31 32 33 34 35 36 37 38 39 40
000
FTUS43 KDMX 270536
TAFDSM
TAF
KDSM 270536Z 2706/2806 36007KT 3SM -DZSN BR OVC005
     FM271100 30013KT 5SM BR BKN006 OVC012
     FM271600 29013G19KT P6SM SCT016=

USA.gov is the U.S. government's official web portal to all federal, state and local government web resources and services.